Time;durP1;ratioP1;P1;durP2;ratioP2;P2;SDS_P1;SDS_P2;PMS_P1;PMS_P2;Temp;Humidity;BMP_temperature;BMP_pressure;BME280_temperature;BME280_humidity;BME280_pressure;Samples;Min_cycle;Max_cycle;Signal;HPM_P1;HPM_P2
2021/07/23 00:01:22;;;;;;;2.30;2.10;;;;;;;36.16;19.64;94619.69;5037025;28;20444;-58
2021/07/23 00:03:49;;;;;;;2.42;2.22;;;;;;;36.24;19.29;94614.75;5036243;28;20471;-58
2021/07/23 00:06:16;;;;;;;2.55;2.30;;;;;;;36.14;19.45;94628.31;5037155;28;20050;-55
2021/07/23 00:08:44;;;;;;;2.45;2.10;;;;;;;36.40;19.08;94628.16;5036430;28;20049;-54
2021/07/23 00:11:11;;;;;;;3.38;2.28;;;;;;;36.23;19.33;94626.84;5037301;28;20061;-55
2021/07/23 00:13:38;;;;;;;3.38;2.55;;;;;;;32.87;23.07;94627.22;5030510;28;20042;-58
2021/07/23 00:16:05;;;;;;;2.50;2.25;;;;;;;34.36;21.28;94629.91;5019308;28;20061;-58
2021/07/23 00:18:32;;;;;;;3.17;2.35;;;;;;;35.28;20.27;94635.16;5036445;28;20045;-55
2021/07/23 00:20:59;;;;;;;2.75;2.35;;;;;;;35.13;20.29;94634.91;5035698;28;20045;-60
2021/07/23 00:23:26;;;;;;;4.05;2.20;;;;;;;35.42;19.99;94628.53;5036231;28;20048;-56
2021/07/23 00:25:54;;;;;;;3.20;2.40;;;;;;;35.60;19.79;94622.47;5035596;28;20068;-53
2021/07/23 00:28:23;;;;;;;2.42;2.10;;;;;;;33.21;22.75;94623.28;5035878;28;20376;-61
2021/07/23 00:30:50;;;;;;;2.72;2.10;;;;;;;33.93;21.55;94626.44;5036284;28;20064;-57
2021/07/23 00:33:17;;;;;;;2.85;2.15;;;;;;;34.28;21.43;94626.59;5035071;28;20041;-54
2021/07/23 00:35:44;;;;;;;2.42;2.20;;;;;;;34.99;20.71;94623.72;5036110;28;20448;-55
2021/07/23 00:38:12;;;;;;;2.47;2.25;;;;;;;35.26;20.08;94626.69;5036624;28;20045;-58
2021/07/23 00:40:39;;;;;;;2.10;1.90;;;;;;;35.33;20.06;94621.03;5019095;28;20052;-56
2021/07/23 00:43:07;;;;;;;2.83;1.92;;;;;;;35.63;19.71;94627.03;5036204;28;20053;-57
2021/07/23 00:45:34;;;;;;;5.03;2.50;;;;;;;35.27;19.92;94622.03;5018568;28;20053;-55
2021/07/23 00:48:02;;;;;;;3.13;2.00;;;;;;;35.26;20.15;94615.84;5035733;28;20060;-58
2021/07/23 00:50:32;;;;;;;2.17;1.90;;;;;;;35.20;20.15;94621.06;5018367;28;20045;-59
2021/07/23 00:53:00;;;;;;;2.45;2.10;;;;;;;35.74;19.56;94619.28;5025232;28;20049;-56
2021/07/23 00:55:28;;;;;;;2.10;1.90;;;;;;;34.92;20.61;94617.31;5017949;28;20046;-56
2021/07/23 00:57:56;;;;;;;2.22;1.98;;;;;;;35.63;19.32;94610.72;5035271;28;20053;-55
2021/07/23 01:00:24;;;;;;;2.47;1.83;;;;;;;35.76;19.33;94611.41;5018535;28;20052;-55
2021/07/23 01:03:01;;;;;;;3.72;2.05;;;;;;;35.49;19.69;94612.75;5035955;28;20561;-59
2021/07/23 01:05:30;;;;;;;2.97;2.10;;;;;;;35.28;19.80;94612.66;5018241;28;20371;-54
2021/07/23 01:08:00;;;;;;;2.30;1.80;;;;;;;35.62;19.64;94609.19;5035861;28;20076;-56
2021/07/23 01:10:28;;;;;;;3.05;2.10;;;;;;;35.65;19.53;94609.06;5018637;28;20046;-54
2021/07/23 01:13:12;;;;;;;1.95;1.75;;;;;;;35.52;19.60;94600.97;5035829;28;20056;-57
2021/07/23 01:15:40;;;;;;;2.15;1.92;;;;;;;35.16;20.07;94606.09;5017908;28;20057;-56
2021/07/23 01:18:08;;;;;;;2.58;2.25;;;;;;;33.11;22.69;94598.75;5022872;28;20042;-59
2021/07/23 01:20:36;;;;;;;2.20;2.00;;;;;;;33.91;21.53;94609.09;4998543;28;20360;-56
2021/07/23 01:23:04;;;;;;;2.55;2.15;;;;;;;34.40;20.78;94608.88;5027585;28;20441;-55
2021/07/23 01:25:34;;;;;;;2.78;2.00;;;;;;;34.67;20.54;94597.56;5018125;28;20064;-56
2021/07/23 01:28:03;;;;;;;2.53;2.10;;;;;;;34.79;20.65;94608.41;5018040;28;20447;-55
2021/07/23 01:30:38;;;;;;;2.92;2.00;;;;;;;35.06;20.34;94607.19;5034105;28;20053;-57
2021/07/23 01:33:19;;;;;;;4.20;2.22;;;;;;;34.84;20.50;94613.31;5035267;28;20049;-58
2021/07/23 01:35:47;;;;;;;2.35;1.83;;;;;;;34.82;20.58;94604.81;5033868;28;20074;-56
2021/07/23 01:38:15;;;;;;;2.80;1.95;;;;;;;35.38;19.92;94596.03;5034448;28;20080;-55
2021/07/23 01:40:44;;;;;;;1.95;1.73;;;;;;;35.12;20.25;94605.44;5017355;28;20375;-56
2021/07/23 01:43:13;;;;;;;2.22;1.98;;;;;;;34.81;20.44;94597.84;5017719;28;20052;-57
2021/07/23 01:45:41;;;;;;;2.40;1.80;;;;;;;34.76;20.94;94601.13;5017312;28;20053;-54
2021/07/23 01:48:38;;;;;;;2.88;2.08;;;;;;;35.19;20.09;94599.78;4998192;28;20072;-64
2021/07/23 01:51:11;;;;;;;2.40;2.20;;;;;;;35.12;20.40;94602.72;4998203;28;20072;-54
2021/07/23 01:53:39;;;;;;;2.90;2.13;;;;;;;34.88;20.43;94597.69;5031651;28;20475;-57
2021/07/23 01:56:06;;;;;;;2.70;2.00;;;;;;;34.33;21.12;94602.41;5034531;28;20049;-61
2021/07/23 01:58:34;;;;;;;3.92;2.20;;;;;;;35.17;20.23;94602.94;5035206;28;20045;-59
2021/07/23 02:01:04;;;;;;;3.55;2.47;;;;;;;35.25;20.08;94608.88;5035110;28;20060;-59
2021/07/23 02:03:35;;;;;;;3.65;2.13;;;;;;;34.86;20.44;94596.56;5034855;28;20045;-55
2021/07/23 02:06:03;;;;;;;3.97;2.33;;;;;;;32.77;22.90;94601.88;5034513;28;20052;-59
2021/07/23 02:08:33;;;;;;;4.85;2.75;;;;;;;32.27;23.74;94602.28;5016494;28;20049;-61
2021/07/23 02:11:03;;;;;;;5.47;2.38;;;;;;;32.72;23.25;94602.38;5015481;28;20062;-54
2021/07/23 02:13:30;;;;;;;4.93;2.50;;;;;;;33.56;21.87;94600.69;5029847;28;20053;-58
2021/07/23 02:16:07;;;;;;;6.85;2.75;;;;;;;34.19;21.63;94605.56;5015569;28;20060;-60
2021/07/23 02:18:34;;;;;;;3.83;2.55;;;;;;;34.27;21.34;94603.38;5034547;28;20048;-58
2021/07/23 02:21:07;;;;;;;5.68;2.72;;;;;;;34.47;21.07;94605.94;5016447;28;20056;-57
2021/07/23 02:23:34;;;;;;;;;;;;;;;34.45;20.98;94608.31;5017486;28;20049;-64
2021/07/23 02:26:01;;;;;;;3.67;2.35;;;;;;;34.80;20.49;94609.91;5034311;28;20335;-60
2021/07/23 02:28:29;;;;;;;4.90;2.60;;;;;;;34.55;20.77;94596.38;5015042;28;20457;-57
2021/07/23 02:30:57;;;;;;;5.30;2.58;;;;;;;34.51;21.08;94606.56;4997661;28;20057;-60
2021/07/23 02:33:27;;;;;;;5.03;2.55;;;;;;;34.39;20.97;94610.06;5027106;28;20041;-58
2021/07/23 02:36:07;;;;;;;5.47;2.42;;;;;;;34.42;21.02;94603.75;5015760;28;20559;-57
2021/07/23 02:38:36;;;;;;;4.03;2.38;;;;;;;34.10;21.07;94608.16;5016857;28;20045;-58
2021/07/23 02:41:07;;;;;;;3.50;2.30;;;;;;;34.59;20.93;94608.63;5016467;28;20057;-58
2021/07/23 02:43:34;;;;;;;2.92;2.42;;;;;;;34.81;20.44;94605.25;5034404;28;20420;-57
2021/07/23 02:46:04;;;;;;;5.50;2.30;;;;;;;34.65;20.56;94608.09;5015606;28;20072;-59
2021/07/23 02:48:32;;;;;;;10.30;2.90;;;;;;;34.59;20.68;94607.88;5016644;28;20482;-62
2021/07/23 02:51:00;;;;;;;6.60;2.67;;;;;;;34.68;20.74;94602.56;5016839;28;20459;-63
2021/07/23 02:53:28;;;;;;;3.70;2.60;;;;;;;34.59;20.74;94597.00;5016914;28;20052;-61
2021/07/23 02:55:56;;;;;;;3.20;2.53;;;;;;;34.70;20.62;94604.84;5016413;28;20372;-62
2021/07/23 02:58:24;;;;;;;4.85;2.65;;;;;;;34.47;20.53;94598.53;5016145;28;20050;-60
2021/07/23 03:00:52;;;;;;;3.65;2.92;;;;;;;34.33;20.95;94607.84;5016897;28;20054;-57
2021/07/23 03:03:22;;;;;;;6.00;3.13;;;;;;;34.48;20.85;94602.03;5034421;28;20046;-56
2021/07/23 03:05:49;;;;;;;8.27;3.15;;;;;;;34.18;21.08;94601.31;5033921;28;20053;-59
2021/07/23 03:08:28;;;;;;;4.88;2.72;;;;;;;34.30;20.77;94597.09;5032949;28;20057;-55
2021/07/23 03:10:57;;;;;;;4.45;2.75;;;;;;;34.41;20.79;94607.66;5034211;28;20057;-58
2021/07/23 03:13:34;;;;;;;5.57;2.88;;;;;;;34.24;20.87;94605.00;5016693;28;20444;-59
2021/07/23 03:16:11;;;;;;;4.70;2.72;;;;;;;34.39;20.74;94604.63;5033013;28;20045;-54
2021/07/23 03:18:38;;;;;;;5.15;3.50;;;;;;;31.82;23.85;94605.47;5026758;28;20057;-60
2021/07/23 03:21:05;;;;;;;9.02;3.15;;;;;;;31.04;25.22;94606.88;5013175;28;20054;-57
2021/07/23 03:23:32;;;;;;;6.13;2.85;;;;;;;32.37;23.20;94606.69;5012818;28;20053;-55
2021/07/23 03:25:59;;;;;;;9.20;3.20;;;;;;;33.39;22.13;94601.97;5028808;28;20056;-57
2021/07/23 03:28:33;;;;;;;6.53;3.35;;;;;;;33.47;21.69;94606.00;5015870;28;20045;-56
2021/07/23 03:31:14;;;;;;;8.50;3.17;;;;;;;33.54;21.89;94600.38;5013124;28;20100;-58
2021/07/23 03:33:44;;;;;;;6.03;2.97;;;;;;;34.19;21.20;94602.09;5013335;28;20480;-56
2021/07/23 03:36:13;;;;;;;5.47;3.42;;;;;;;34.26;21.20;94602.63;5013065;28;20345;-56
2021/07/23 03:38:41;;;;;;;8.07;3.05;;;;;;;34.15;21.19;94607.63;5016086;28;20046;-56
2021/07/23 03:41:08;;;;;;;5.07;3.50;;;;;;;34.18;21.18;94612.19;5033195;28;20060;-57
2021/07/23 03:43:36;;;;;;;6.60;4.18;;;;;;;34.06;21.51;94601.28;5033718;28;20333;-64
2021/07/23 03:46:10;;;;;;;7.72;5.63;;;;;;;34.54;20.81;94606.47;5015303;28;20057;-56
2021/07/23 03:48:43;;;;;;;8.55;5.75;;;;;;;34.40;20.96;94608.88;5033608;28;20072;-57
2021/07/23 03:51:19;;;;;;;6.18;5.35;;;;;;;34.53;20.89;94607.66;5016383;28;20049;-58
2021/07/23 03:53:47;;;;;;;6.25;5.40;;;;;;;34.04;21.65;94615.28;5036407;28;20060;-56
2021/07/23 03:56:22;;;;;;;6.38;5.43;;;;;;;34.17;21.41;94613.38;5019488;28;20037;-58
2021/07/23 03:58:52;;;;;;;8.07;5.50;;;;;;;34.37;21.09;94623.31;5019673;28;20057;-59
2021/07/23 04:01:25;;;;;;;8.50;5.95;;;;;;;34.06;21.55;94615.63;5019728;28;20045;-55
2021/07/23 04:03:56;;;;;;;9.20;6.80;;;;;;;34.27;21.37;94616.94;5035355;28;20064;-55
2021/07/23 04:06:27;;;;;;;7.22;6.53;;;;;;;33.97;21.40;94616.25;5019388;28;20053;-58
2021/07/23 04:08:55;;;;;;;7.70;5.57;;;;;;;34.36;21.26;94625.25;4986737;28;20064;-56
2021/07/23 04:11:30;;;;;;;7.72;5.35;;;;;;;34.17;21.39;94620.75;5036765;28;20042;-56
2021/07/23 04:14:01;;;;;;;12.73;5.00;;;;;;;34.52;20.81;94608.09;5019351;28;20080;-59
2021/07/23 04:16:28;;;;;;;5.95;4.65;;;;;;;35.51;19.98;94615.78;5033898;28;20057;-54
2021/07/23 04:18:56;;;;;;;5.53;4.25;;;;;;;34.53;21.68;94610.38;5017388;28;20049;-63
2021/07/23 04:21:31;;;;;;;6.60;4.32;;;;;;;34.45;21.79;94619.16;5025833;28;20048;-69
2021/07/23 04:23:59;;;;;;;7.07;5.03;;;;;;;33.77;22.44;94606.75;5017982;28;20050;-70
2021/07/23 04:26:26;;;;;;;8.10;7.15;;;;;;;32.19;24.50;94611.66;5019703;28;20076;-58
2021/07/23 04:28:57;;;;;;;10.20;7.20;;;;;;;31.29;26.35;94611.88;5012698;28;20057;-79
2021/07/23 04:31:27;;;;;;;8.70;7.07;;;;;;;29.59;28.33;94610.34;5016313;28;20056;-56
2021/07/23 04:37:00;;;;;;;9.50;7.43;;;;;;;27.07;32.91;94601.06;5120615;27;20121;-67
2021/07/23 04:39:59;;;;;;;9.77;7.10;;;;;;;29.72;28.36;94605.97;5118998;28;20048;-56
2021/07/23 04:42:26;;;;;;;9.45;6.15;;;;;;;29.91;28.13;94615.34;5112452;28;20040;-62
2021/07/23 04:44:53;;;;;;;9.82;5.95;;;;;;;31.15;25.85;94612.06;5102017;28;20047;-57
2021/07/23 04:47:21;;;;;;;7.75;5.90;;;;;;;30.31;27.32;94610.25;5104359;28;20370;-60
2021/07/23 04:49:48;;;;;;;8.43;5.50;;;;;;;31.99;25.48;94610.94;5131931;28;20062;-59
2021/07/23 04:52:32;;;;;;;6.70;5.15;;;;;;;31.07;26.52;94610.66;5106791;28;20051;-58
2021/07/23 04:55:17;;;;;;;5.63;4.80;;;;;;;31.11;26.78;94609.44;5125579;28;20361;-64
2021/07/23 04:58:03;;;;;;;5.20;4.55;;;;;;;32.43;25.68;94606.94;5119460;28;20039;-52
2021/07/23 05:00:30;;;;;;;9.45;5.38;;;;;;;31.10;26.86;94610.59;5117605;28;20043;-71
2021/07/23 05:02:57;;;;;;;5.93;4.60;;;;;;;32.75;24.18;94608.88;5116719;27;20461;-55
2021/07/23 05:05:24;;;;;;;8.45;4.45;;;;;;;31.11;26.55;94609.44;5104005;28;20044;-65
2021/07/23 05:07:52;;;;;;;8.25;4.43;;;;;;;31.93;25.60;94609.91;5090600;28;20055;-60
2021/07/23 05:10:20;;;;;;;5.05;4.20;;;;;;;32.08;25.17;94601.09;5090384;28;20055;-61
2021/07/23 05:12:47;;;;;;;6.47;4.10;;;;;;;31.52;26.17;94602.97;5119724;28;20051;-61
2021/07/23 05:15:14;;;;;;;7.50;4.20;;;;;;;31.24;26.12;94609.66;5131287;28;20044;-63
2021/07/23 05:17:42;;;;;;;4.40;4.00;;;;;;;31.38;26.29;94611.31;5131264;28;20046;-59
2021/07/23 05:20:10;;;;;;;5.68;4.47;;;;;;;31.21;26.64;94600.41;5132106;28;20461;-56
2021/07/23 05:22:38;;;;;;;9.73;4.70;;;;;;;33.05;24.21;94600.47;5131415;28;20054;-59
2021/07/23 05:25:07;;;;;;;6.57;4.00;;;;;;;32.09;25.65;94597.22;5094166;28;20115;-60
2021/07/23 05:27:35;;;;;;;5.00;4.25;;;;;;;32.61;24.69;94603.81;5091117;28;20055;-61
2021/07/23 05:30:03;;;;;;;4.32;3.92;;;;;;;31.77;25.67;94611.38;5090356;28;20048;-60
2021/07/23 05:32:30;;;;;;;5.70;4.30;;;;;;;32.03;25.18;94604.28;5108846;27;20048;-61
2021/07/23 05:34:57;;;;;;;7.13;4.32;;;;;;;31.68;25.51;94600.31;5090217;28;20059;-61
2021/07/23 05:37:25;;;;;;;5.78;4.03;;;;;;;31.75;25.68;94612.94;5090801;28;20048;-60
2021/07/23 05:39:52;;;;;;;7.90;4.20;;;;;;;31.50;25.98;94600.69;5090876;28;20354;-60
2021/07/23 05:42:19;;;;;;;6.30;3.95;;;;;;;31.67;26.14;94606.91;5098826;28;20445;-62
2021/07/23 05:44:46;;;;;;;6.88;3.83;;;;;;;31.82;25.74;94602.78;5110856;28;20048;-60
2021/07/23 05:47:13;;;;;;;4.95;4.22;;;;;;;32.12;25.87;94606.41;5115542;28;20047;-61
2021/07/23 05:49:40;;;;;;;4.88;3.35;;;;;;;32.27;25.31;94606.88;5117776;28;20047;-60
2021/07/23 05:52:07;;;;;;;3.53;3.22;;;;;;;32.13;25.50;94603.28;5083700;28;20044;-56
2021/07/23 05:54:36;;;;;;;5.90;3.15;;;;;;;32.23;25.74;94606.94;5097319;28;20043;-61
2021/07/23 05:57:03;;;;;;;4.90;3.47;;;;;;;32.44;25.41;94603.81;5097347;28;20423;-60
2021/07/23 05:59:32;;;;;;;4.18;3.40;;;;;;;32.48;24.78;94596.34;5096929;28;20052;-57
2021/07/23 06:01:59;;;;;;;5.15;3.10;;;;;;;33.92;23.19;94605.19;5091815;28;20052;-57
2021/07/23 06:04:26;;;;;;;4.28;3.25;;;;;;;34.10;22.86;94608.16;5095476;28;20036;-62
2021/07/23 06:06:53;;;;;;;4.13;3.47;;;;;;;34.15;22.58;94606.84;5082227;28;20071;-61
2021/07/23 06:09:20;;;;;;;5.03;3.10;;;;;;;34.47;22.37;94603.22;5076966;28;20048;-61
2021/07/23 06:11:47;;;;;;;6.38;3.30;;;;;;;34.54;23.15;94608.41;5079371;28;20048;-61
2021/07/23 06:14:14;;;;;;;4.38;3.40;;;;;;;34.51;22.58;94604.63;5102854;28;20050;-60
2021/07/23 06:16:42;;;;;;;4.05;3.00;;;;;;;34.60;22.87;94610.13;5115658;28;20460;-61
2021/07/23 06:19:09;;;;;;;5.22;3.28;;;;;;;34.87;22.40;94609.75;5096860;28;20435;-58
2021/07/23 06:21:36;;;;;;;3.03;2.60;;;;;;;35.23;21.73;94608.56;5077153;28;20064;-55
2021/07/23 06:24:03;;;;;;;4.72;3.10;;;;;;;35.62;21.50;94603.75;5096644;28;20476;-56
2021/07/23 06:26:30;;;;;;;5.10;2.88;;;;;;;35.07;21.79;94608.69;5076956;28;20469;-57
2021/07/23 06:28:57;;;;;;;6.72;3.10;;;;;;;35.62;21.47;94606.47;5075946;28;20404;-60
2021/07/23 06:31:24;;;;;;;4.80;3.13;;;;;;;35.58;22.01;94603.13;5076590;28;20474;-60
2021/07/23 06:33:51;;;;;;;4.30;3.33;;;;;;;35.53;21.69;94607.94;5115148;28;20047;-58
2021/07/23 06:36:19;;;;;;;5.45;3.30;;;;;;;36.07;21.34;94590.50;5116827;28;20358;-60
2021/07/23 06:38:46;;;;;;;4.97;2.67;;;;;;;35.68;21.70;94602.00;5117034;28;20051;-59
2021/07/23 06:41:13;;;;;;;4.38;3.08;;;;;;;36.07;21.09;94590.50;5101847;28;20045;-56
2021/07/23 06:43:40;;;;;;;3.47;2.83;;;;;;;36.35;21.17;94599.56;5126226;27;20559;-56
2021/07/23 06:46:07;;;;;;;4.80;3.25;;;;;;;36.72;20.69;94600.47;5099216;28;20051;-58
2021/07/23 06:48:36;;;;;;;3.10;2.80;;;;;;;36.95;20.63;94601.13;5099788;28;20055;-61
2021/07/23 06:51:04;;;;;;;3.58;2.88;;;;;;;37.35;19.96;94596.38;5082501;28;20043;-55
2021/07/23 06:53:31;;;;;;;5.13;2.95;;;;;;;36.89;19.98;94592.81;5099093;28;20040;-60
2021/07/23 06:55:58;;;;;;;4.07;2.72;;;;;;;37.12;19.93;94594.22;5094791;28;20055;-61
2021/07/23 06:58:25;;;;;;;5.97;2.92;;;;;;;37.20;20.14;94595.44;5077690;28;20044;-60
2021/07/23 07:00:53;;;;;;;3.58;2.60;;;;;;;37.10;19.45;94596.63;5075396;28;20052;-57
2021/07/23 07:03:20;;;;;;;2.80;2.50;;;;;;;37.30;19.47;94591.53;5090195;28;20044;-59
2021/07/23 07:05:50;;;;;;;3.45;2.42;;;;;;;37.03;20.32;94586.03;5115902;28;20047;-60
2021/07/23 07:08:18;;;;;;;4.25;2.70;;;;;;;37.21;19.78;94586.03;5116374;28;20047;-58
2021/07/23 07:10:45;;;;;;;3.33;2.60;;;;;;;37.65;19.62;94585.75;5104923;28;20052;-60
2021/07/23 07:13:12;;;;;;;4.15;2.40;;;;;;;38.09;18.49;94590.88;5088070;28;20044;-61
2021/07/23 07:15:39;;;;;;;5.00;2.70;;;;;;;38.16;18.93;94585.09;5085074;28;20321;-62
2021/07/23 07:18:06;;;;;;;7.00;2.65;;;;;;;37.92;18.61;94577.56;5110835;28;20438;-63
2021/07/23 07:20:33;;;;;;;5.47;2.33;;;;;;;37.81;19.04;94574.56;5095460;28;20062;-62
2021/07/23 07:23:01;;;;;;;4.45;2.42;;;;;;;37.45;18.89;94577.28;5093899;28;20048;-60
2021/07/23 07:25:31;;;;;;;3.72;2.50;;;;;;;38.17;18.47;94573.75;5091445;28;20417;-61
2021/07/23 07:28:00;;;;;;;2.83;2.42;;;;;;;38.46;18.06;94569.69;5093332;28;20051;-53
2021/07/23 07:30:27;;;;;;;2.63;2.40;;;;;;;37.99;17.96;94567.53;5075319;28;20451;-57
2021/07/23 07:32:54;;;;;;;23.40;20.27;;;;;;;35.19;21.60;94567.19;5078456;28;20052;-47
2021/07/23 07:35:21;;;;;;;8.95;6.38;;;;;;;34.31;23.32;94564.09;5051738;28;20340;-59
2021/07/23 08:58:33;;;;;;;6.50;5.50;;;;;;;31.79;24.13;94552.28;5072145;28;20372;-57
2021/07/23 09:01:00;;;;;;;8.55;4.20;;;;;;;32.87;21.97;94550.66;5063848;28;20044;-59
2021/07/23 14:36:39;;;;;;;9.15;4.35;;;;;;;31.91;25.32;94358.94;5132737;27;20124;-57
2021/07/23 14:39:06;;;;;;;5.40;4.20;;;;;;;35.00;21.35;94359.09;5106262;28;20385;-61
2021/07/23 14:41:33;;;;;;;5.38;3.92;;;;;;;36.34;19.13;94363.25;5092091;28;20052;-62
2021/07/23 14:44:00;;;;;;;6.35;4.03;;;;;;;36.99;18.93;94370.22;5089981;28;20052;-56
2021/07/23 14:46:28;;;;;;;6.40;4.15;;;;;;;36.19;19.90;94373.19;5097114;28;20357;-60
2021/07/23 14:48:56;;;;;;;6.50;4.20;;;;;;;37.55;17.85;94368.88;5102563;28;20059;-59
2021/07/23 14:51:23;;;;;;;6.57;3.78;;;;;;;37.65;18.26;94370.34;5104001;28;20362;-72
2021/07/23 14:53:50;;;;;;;6.38;5.07;;;;;;;38.32;17.81;94374.59;5110998;28;20055;-65
2021/07/23 14:56:17;;;;;;;88.32;81.28;;;;;;;38.54;17.08;94364.09;5091234;28;20405;-62
2021/07/23 14:58:44;;;;;;;36.97;33.35;;;;;;;39.33;16.69;94365.53;5091792;28;20059;-56
2021/07/23 15:01:12;;;;;;;6.80;6.20;;;;;;;39.22;16.82;94359.88;5091246;28;20044;-64
2021/07/23 15:03:39;;;;;;;6.35;5.82;;;;;;;39.10;16.73;94367.91;5090914;28;20059;-64
2021/07/23 15:06:06;;;;;;;12.18;5.28;;;;;;;38.88;16.80;94369.47;5091388;28;20040;-56
2021/07/23 15:08:34;;;;;;;5.25;4.75;;;;;;;38.53;17.14;94362.59;5091145;28;20382;-67
2021/07/23 15:11:02;;;;;;;5.22;4.72;;;;;;;38.75;16.96;94366.97;5091006;28;20041;-51
2021/07/23 15:13:29;;;;;;;5.60;5.07;;;;;;;39.12;17.04;94365.44;5090537;28;20047;-67
2021/07/23 15:15:57;;;;;;;30.20;23.67;;;;;;;38.89;17.50;94371.72;5091915;28;20261;-69
2021/07/23 15:18:26;;;;;;;7.03;6.32;;;;;;;38.07;17.59;94361.38;5108404;28;20059;-65
2021/07/23 15:21:00;;;;;;;191.02;179.25;;;;;;;38.13;18.05;94371.19;5091327;28;20055;-65
2021/07/23 15:23:27;;;;;;;29.67;27.40;;;;;;;38.19;17.83;94365.88;5089578;28;20059;-64
2021/07/23 15:25:55;;;;;;;15.45;14.30;;;;;;;37.76;18.36;94367.91;5110821;28;20039;-58
2021/07/23 15:28:22;;;;;;;32.30;11.30;;;;;;;37.85;18.06;94373.31;5093516;28;20075;-69
2021/07/23 15:30:49;;;;;;;9.48;8.50;;;;;;;37.80;18.24;94363.03;5089334;28;20045;-53
2021/07/23 15:33:16;;;;;;;8.85;8.02;;;;;;;37.67;18.77;94365.19;5089134;28;20056;-74
2021/07/23 15:35:44;;;;;;;8.10;7.40;;;;;;;37.61;18.27;94367.03;5088927;28;20052;-58
2021/07/23 15:38:12;;;;;;;54.78;36.75;;;;;;;38.47;18.35;94361.72;5090292;28;20051;-50
2021/07/23 15:40:39;;;;;;;38.55;33.78;;;;;;;38.25;18.06;94370.22;5090787;28;20394;-57
2021/07/23 15:43:10;;;;;;;10.52;8.90;;;;;;;38.49;17.89;94364.72;5090682;28;20052;-52
2021/07/23 15:45:41;;;;;;;6.70;6.10;;;;;;;37.83;18.33;94364.84;5090457;28;20044;-72
2021/07/23 15:48:09;;;;;;;6.80;5.93;;;;;;;37.79;18.42;94372.44;5095552;28;20054;-66
2021/07/23 15:50:36;;;;;;;6.82;6.18;;;;;;;38.41;17.62;94366.31;5096998;28;20044;-52
2021/07/23 15:53:03;;;;;;;6.95;6.30;;;;;;;38.46;18.02;94370.38;5097498;28;20048;-70
2021/07/23 15:55:31;;;;;;;5.95;5.03;;;;;;;37.19;19.41;94366.97;5082454;28;20063;-60
2021/07/23 15:57:58;;;;;;;5.80;4.57;;;;;;;37.73;18.44;94374.25;5075946;28;20067;-60
2021/07/23 16:00:25;;;;;;;7.03;4.30;;;;;;;37.92;18.02;94372.22;5076991;28;20051;-70
2021/07/23 16:02:57;;;;;;;4.95;4.50;;;;;;;37.66;18.79;94369.13;5076997;28;20852;-67
2021/07/23 16:05:28;;;;;;;5.15;4.45;;;;;;;37.86;18.05;94380.28;5090980;28;20047;-63
2021/07/23 16:07:55;;;;;;;4.93;4.40;;;;;;;37.98;18.30;94370.34;5096841;28;20047;-61
2021/07/23 16:10:23;;;;;;;4.55;4.15;;;;;;;38.12;18.15;94377.09;5096746;28;20056;-63
2021/07/23 16:12:50;;;;;;;5.93;4.47;;;;;;;38.09;18.17;94372.56;5097013;28;20327;-64
2021/07/23 16:15:17;;;;;;;5.80;4.45;;;;;;;38.33;18.20;94376.09;5096762;28;20454;-55
2021/07/23 16:17:44;;;;;;;5.40;4.45;;;;;;;38.09;18.17;94378.78;5096688;28;20047;-51
2021/07/23 16:20:12;;;;;;;6.07;4.22;;;;;;;37.75;18.45;94377.31;5096534;28;20040;-60
2021/07/23 16:22:39;;;;;;;13.90;12.40;;;;;;;37.87;18.70;94372.84;5096903;28;20044;-69
2021/07/23 16:25:07;;;;;;;286.80;225.48;;;;;;;38.07;18.45;94378.50;5096289;28;20044;-69
2021/07/23 16:27:34;;;;;;;31.17;23.13;;;;;;;38.37;18.02;94368.47;5087749;28;20052;-63
2021/07/23 16:30:01;;;;;;;14.32;11.43;;;;;;;38.12;17.75;94382.56;5075798;28;20439;-62
2021/07/23 16:32:28;;;;;;;13.13;9.75;;;;;;;38.43;17.58;94377.53;5076172;28;20056;-70
2021/07/23 16:34:55;;;;;;;9.82;7.78;;;;;;;38.13;18.08;94375.88;5075859;28;20048;-72
2021/07/23 16:37:22;;;;;;;7.88;7.07;;;;;;;38.04;17.28;94379.44;5076725;28;20045;-66
2021/07/23 16:39:49;;;;;;;9.23;7.03;;;;;;;37.92;18.29;94374.94;5075893;28;20465;-52
2021/07/23 16:42:16;;;;;;;7.75;6.10;;;;;;;37.94;18.75;94375.97;5075134;28;20048;-67
2021/07/23 16:44:46;;;;;;;6.85;5.78;;;;;;;38.28;17.46;94384.16;5075665;28;20044;-58
2021/07/23 16:47:13;;;;;;;6.13;5.53;;;;;;;38.16;17.96;94377.69;5087921;28;20058;-67
2021/07/23 16:49:40;;;;;;;5.65;4.95;;;;;;;38.09;17.71;94378.78;5092167;28;20458;-58
2021/07/23 16:52:07;;;;;;;6.50;5.03;;;;;;;37.45;17.68;94378.28;5075888;28;20044;-61
2021/07/23 16:54:35;;;;;;;5.38;4.80;;;;;;;37.51;18.21;94381.94;5081556;28;20047;-58
2021/07/23 16:57:02;;;;;;;7.30;4.47;;;;;;;37.94;17.83;94378.72;5095979;28;20044;-62
2021/07/23 16:59:30;;;;;;;7.65;4.90;;;;;;;37.77;18.28;94385.78;5094765;28;20047;-54
2021/07/23 17:01:57;;;;;;;7.47;4.82;;;;;;;37.84;18.38;94379.97;5095694;28;20048;-65
2021/07/23 17:04:24;;;;;;;5.75;4.70;;;;;;;38.10;17.70;94387.72;5077936;28;20367;-71
2021/07/23 17:06:51;;;;;;;6.10;4.40;;;;;;;37.96;18.12;94387.19;5075047;28;20485;-63
2021/07/23 17:09:18;;;;;;;6.88;4.72;;;;;;;38.20;17.39;94379.03;5074750;28;20048;-64
2021/07/23 17:11:46;;;;;;;5.32;4.68;;;;;;;38.11;17.91;94383.78;5075033;28;20051;-54
2021/07/23 17:14:14;;;;;;;5.28;4.70;;;;;;;38.05;17.86;94388.38;5075068;28;20447;-48
2021/07/23 17:16:43;;;;;;;7.30;4.60;;;;;;;38.60;17.58;94386.06;5082900;28;20055;-67
2021/07/23 17:19:10;;;;;;;5.10;4.57;;;;;;;37.87;18.16;94384.50;5081931;28;20048;-65
2021/07/23 17:21:37;;;;;;;6.78;4.78;;;;;;;37.94;18.39;94384.16;5074548;28;20047;-64
2021/07/23 17:24:05;;;;;;;5.60;5.10;;;;;;;37.71;18.89;94382.16;5075689;28;20062;-72
2021/07/23 17:26:32;;;;;;;9.35;4.80;;;;;;;37.35;19.22;94388.47;5080806;28;20362;-64
2021/07/23 17:28:59;;;;;;;5.75;5.25;;;;;;;37.47;19.07;94395.69;5083579;28;20056;-62
2021/07/23 17:31:26;;;;;;;6.10;5.15;;;;;;;37.32;18.93;94392.13;5083798;28;20044;-54
2021/07/23 17:33:54;;;;;;;89.72;84.15;;;;;;;37.17;19.02;94394.69;5084342;28;20438;-50
2021/07/23 17:36:21;;;;;;;26.73;24.10;;;;;;;37.51;18.58;94395.56;5073873;28;20052;-63
2021/07/23 17:38:48;;;;;;;243.65;172.77;;;;;;;37.39;18.85;94396.50;5075222;28;20358;-63
2021/07/23 17:41:16;;;;;;;28.73;21.30;;;;;;;37.72;19.02;94400.03;5074686;28;20056;-58
2021/07/23 17:43:48;;;;;;;16.00;11.50;;;;;;;38.79;17.78;94405.81;5072817;28;20052;-64
2021/07/23 17:46:16;;;;;;;7.30;6.35;;;;;;;38.94;17.82;94400.34;5078886;28;20048;-52
2021/07/23 17:48:45;;;;;;;8.35;5.25;;;;;;;37.44;18.34;94402.06;5078491;28;20459;-47
2021/07/23 17:51:14;;;;;;;6.53;5.07;;;;;;;37.14;19.20;94401.06;5073805;28;20051;-48
2021/07/23 17:53:43;;;;;;;6.55;5.45;;;;;;;37.02;19.08;94402.00;5086275;28;20370;-54
2021/07/23 17:56:11;;;;;;;7.78;7.05;;;;;;;36.93;19.13;94407.44;5076832;28;20055;-57
2021/07/23 17:58:38;;;;;;;5.68;5.18;;;;;;;36.93;19.08;94402.75;5074896;28;20051;-70
2021/07/23 18:01:07;;;;;;;7.47;5.68;;;;;;;37.17;18.29;94410.28;5074160;28;20049;-67
2021/07/23 18:03:36;;;;;;;5.57;5.07;;;;;;;37.04;18.94;94408.50;5074538;28;20059;-73
2021/07/23 18:06:03;;;;;;;6.35;5.43;;;;;;;37.28;18.44;94400.47;5074179;28;20049;-65
2021/07/23 18:08:30;;;;;;;6.18;5.60;;;;;;;37.25;18.96;94415.00;5074300;28;20363;-66
2021/07/23 18:10:57;;;;;;;5.25;4.75;;;;;;;37.05;19.14;94410.00;5076758;28;20071;-68
2021/07/23 18:13:24;;;;;;;6.55;5.60;;;;;;;36.90;19.18;94411.06;5083540;28;20339;-67
2021/07/23 18:15:51;;;;;;;6.18;5.68;;;;;;;36.99;18.82;94419.25;5080951;28;20466;-59
2021/07/23 18:18:18;;;;;;;6.43;5.75;;;;;;;36.80;19.05;94413.06;5079820;28;20056;-67
2021/07/23 18:20:45;;;;;;;8.82;5.82;;;;;;;36.74;18.90;94415.59;5074580;28;20052;-66
2021/07/23 18:23:12;;;;;;;6.68;5.95;;;;;;;36.61;19.33;94425.88;5074590;28;20443;-67
2021/07/23 18:25:40;;;;;;;7.05;6.05;;;;;;;36.33;19.58;94421.59;5073162;28;20044;-67
2021/07/23 18:28:07;;;;;;;7.55;6.78;;;;;;;36.18;19.91;94431.53;5083478;28;20044;-68
2021/07/23 18:30:34;;;;;;;8.70;7.38;;;;;;;36.00;19.99;94427.56;5074295;28;20048;-68
2021/07/23 18:33:01;;;;;;;8.38;7.57;;;;;;;36.03;20.05;94426.66;5074510;28;20052;-67
2021/07/23 18:35:29;;;;;;;9.93;8.52;;;;;;;36.08;20.29;94430.75;5073888;28;20458;-67